Scroll down
FLIGHT INFORMATION
United Airlines

UAL2199

At Arrival Gate

KSNA
 KDEN
DATE: 2021-07-07
GATE: G2
GATE DEPARTURE: 20:44
TAKEOFF: 20:54
DATE: 2021-07-07
GATE: B45
LANDING: 23:10
GATE ARRIVAL: 23:23
FLIGHT DATA
Crew: 
Speed: 
468 kts
Altitude: 
37,047 ft
Stage Length: 
734.2 nm
Block Time: 
2.6 hrs
Flight Time: 
2.3 hrs
Fuel Used: 
14,567 lb
Cleared Route: KSNA STREL DOLLF FINZZ CAHIL ZOOMM SEBBY PLAYY ARCUS YELAH WYZEE BEALE NOOTN BETHL FREDD DICEE BUMMP SNOEE BOWLL ABASN KTOOO SSKII BGDEE TLRID ZATUT LOOOP JIBAT FUZZZ RW26
TRACK DATA
50,000 ft 1,000 kts
AIRCRAFT INFO AND CUMULATIVE STATS
Aircraft Type: 
B739ERSSW
Registration: 
SELCAL: 
CLFG
MSN/LN: 
32835 / 2817
Operator: 
Total Flights: 
19
Total Block Time: 
43.9 hrs
Total Flight Time: 
37.7 hrs
Total Fuel Used: 
236,361 lb
DATALINK LOG | Newest first | Current as of: 2023-02-06 23:32:05
LABEL SEQUENCE CONTENT Dn/Up
2U3127KDEN 071353Z 25005KT 10SM FEW220 21/14 A3025 RMK AO2 SLP160 T02060144▲ Up
2S3753KDEN▼ Dn
QD294623:23 2.9▼ Dn
QC163623:10▼ Dn
GA3915GATE B45▲ Up
GR3904KDEN 22:47 MAAS 00 YP/UM 00/00 WCHR/S/C 00/00/00 HI-VAL NO DIPL/VIP NO▼ Dn
2U0618KDEN 071253Z 22008KT 10SM FEW220 18/14 A3024 RMK AO2 SLP161 T01830139▲ Up
2S1240KDEN▼ Dn
2U4121KDEN 071153Z 23008KT 10SM FEW220 17/14 A3022 RMK AO2 SLP156 T01670139 10211 20144 55002▲ Up
2S4819KDEN▼ Dn
QB013720:54▼ Dn
QA512820:44 17.5▼ Dn
2U3345KSNA 071053Z AUTO 18004KT 10SM OVC010 20/16 A2986 RMK AO2 SLP108 T02000161▲ Up
2S3919KSNA▼ Dn
A32414CLEARED TO KDEN VIA FINZZ3 BEALE J146 DICEE BUMMP SSKII2 . SQUAWK 2145.▲ Up
UM2122113KSNA ATIS - SNA ATIS INFO X 0553Z. 17007KT 7SM SCT009 19/16 A2988 (TWO NINER EIGHT EIGHT). ILS RWY 20R APPROACH IN USE. LANDING AND DEPARTING RUNWAYS 20R AND 20L. ATTENTION ALL AIRCRAFT. HAZD WX INFO 4 THE SW UNITED STATES AVBL ON FLIGHT WATCH, OR FSS FREQUENCIES. USE CAUTION FOR BIRD ACTIVITY IN THE VICINITY OF THE AIRPORT. USE CAUTION FOR MULTIPLE CRANES VARIOUS QUADRANTS. ACFT READBACK RWY ASSIGNMENTS AND HOLD SHORT INSTRUCTIONS.. ALL DEPARTING GENERAL AVIATION ACFT CTC CD PRIOR TO TAXI. ...ADVS YOU HAVE INFO X.▲ Up
DM792103 ATIS KSNA D▼ Dn
A72102CLEARANCE AVAIL WITHIN 0:25 OF EDT▲ Up
B32102KSNA KDEN UAL2199 N75432 ▼ Dn
Q01759[LINK ACK]▲ Up
Q01759[LINK TEST]▼ Dn


AIRCRAFT HISTORY
FLIGHT DATE FLIGHT NO. ORIGIN DESTINATION CLEARED ROUTE BLOCK TIME FLIGHT TIME FUEL USED PILOT
2022-01-03UAL1535KLAX KIAH KLAX DOCKR WEILR SHAEF PEVEE HOLTZ DOTSS WIILD BLCKD CSTWY CNERY BLH SALOM KOFFA TFD TOTEC ITEMM SSO ALIBY ELP PEQ DIESL STOCK FFUEL ARNNE PPUMP PPIPE MPORT DRLLR PTROL DOMNO SKLER CHUBS RW26R3 hrs2.6 hrs16,029 lbNiklas Graefe
2021-12-28UAL403KDEN KLAX KDEN BRKEM WAKIR TUULO HLTON MTSUI BAYLR BOBBA TEHRU JASSE AREAF ESGEE DNERO SLLRS FLOJO SALYY GLESN ANJLL CAANN BOYEL CRCUS RW25L2.5 hrs2.2 hrs13,579 lbNiklas Graefe
2021-12-24UAL1999KSFO KDEN KSFO TYDYE TRUKN COSMC SYRAH JSICA LUDOH BUMMP SNOEE BOWLL ABASN KTOOO SSKII BGDEE CRAGG NARLE TELLR CELBI RW35L2.2 hrs1.8 hrs12,501 lbDan Downs
2021-09-24UAL123KDEN KSFO COORZ6 VOAXA Q136 RUMPS OAL INYOE DYAMD52.5 hrs2.1 hrs0 lbNiklas Graefe
2021-07-22UAL1658KLAS KDEN KLAS LEELN GLIAN BACCK ALOLY TTEEA GIDGT NICLE TUKRR BUMMP SNOEE BOWLL ABASN KTOOO SSKII BGDEE TLRID EPPIC RDDVL CLFFF SARAH RW071.9 hrs1.5 hrs10,290 lbNiklas Graefe
2021-07-15UAL299KDEN KLAS KDEN BRKEM WAKIR TUULO HLTON MTSUI BAYLR BOBBA TEHRU DVC TYEGR WARKA DUUGG HAANG AALAN CHOWW WOLPH TATUU KRLOZ PRINO RW26L1.8 hrs1.4 hrs9,654 lbNiklas Graefe
2021-07-11UAL1505KBZN KDEN KBZN JAPER BOBKT ZORKE TOOLS BOY TOFUU GNOLA HIPEE FOLSM BBOCO FLATI ELLDO TOTTT YESSS BAACK BABAA HIMOM RNOLD RW34L1.4 hrs1.2 hrs7,858 lbNiklas Graefe
2021-07-11UAL671KDEN KBZN KDEN MUGBE WAZEE LODOE RINKR HERDR TROTO YAMMI DDRTH BOY BZN SITRE RW301.6 hrs1.3 hrs9,145 lbNiklas Graefe
2021-07-07UAL2199KSNA KDEN KSNA STREL DOLLF FINZZ CAHIL ZOOMM SEBBY PLAYY ARCUS YELAH WYZEE BEALE NOOTN BETHL FREDD DICEE BUMMP SNOEE BOWLL ABASN KTOOO SSKII BGDEE TLRID ZATUT LOOOP JIBAT FUZZZ RW262.6 hrs2.3 hrs14,567 lbNiklas Graefe
2021-07-05UAL404KDEN KSNA KDEN TAVRN VONNN TEEBO CONNR WERNR ZAKRY BUGGG BAWER AHOWW ZAINY BLD NATEE FEYLA LRSON GITRR DUUNN CARZZ AASPN KADYN EROCK LUQAS DSNEE JWARD HUKEM RW20R2.3 hrs1.9 hrs12,136 lbNiklas Graefe
2021-07-04UAL1030KOMA KDEN KOMA OBH BRWRY DUNKL KOLSH PLZNR LAWGR PPINT BURRP YUPEE FFFAT DOGGG DRUMM RW35R1.5 hrs1.2 hrs8,609 lbNiklas Graefe
2021-05-02UAL519KELP KOMA KELP CME PNH MMB ICT PWE KOMA2.2 hrs2 hrs14,557 lbChemtrails
2020-12-15UAL51KSPS KELP KSPS SPS POSTE MEGGA VAYTU AJAHO ABI TYEES NOLAN HYMAN TAYOL BYPAS MAF YOGSU INK FEVOM CAVRN DILLI SFL EWM RW26R1.5 hrs1.3 hrs10,744 lbWILLIAM BRIDGES
2020-11-01UAL51KABQ KSPS KABQ DLSOL YUGLU CIANE MNZNO FATTT MOLVE TXO TURKI GANJA SPS RW33L1.4 hrs1.1 hrs9,164 lbWILLIAM BRIDGES
2020-09-06UAL1534KBZN KABQ 1.9 hrs1.6 hrs10,466 lbPete L.
2020-09-06UAL1534KDEN KBZN KDEN MUGBE WAZEE LODOE RINKR HERDR TROTO YAMMI DDRTH BOY LVM RW301.6 hrs1.3 hrs9,519 lbPete L.
2020-08-23UAL430KBOS KDEN KBOS NHANT HURBE STAYC SHAAN HYLND CAM PAYGE PUPPY GONZZ HOZIR DERLO KITOK TANKO FNT DBQ CAPPR JORDY TODDO OBH BRWRY DUNKL KOLSH PLZNR LAWGR PPINT TAPME GRRUB HOOPE RW17R4.1 hrs3.7 hrs22,121 lbPete L.
2020-08-22UAL6321KABQ KBOS KABQ TYILR ROWHO GRZZZ DNIDE FTI GCK SLN IRK JOT GIJ CRL CFHFC CFJGT COHOW SURLY JHW WAYLA VIEEW TYROD MEMMS LOXXE PONCT STOLI MNSTA SEETS DUBLE BASEZ JFUND AUTUM WINTA HRRIS ISLAY LWLND NOLEY RW22L4.4 hrs4.1 hrs25,044 lbPete L.
2020-08-18UAL5984KTPA KABQ KTPA FINKI BAYPO CTY SZW MEI TXK SPS TCC ACH TALLR COLTR YYLEE TACOH RW263.5 hrs3.2 hrs20,378 lbPete L.